Aéroport de Guadeloupe - Pôle Caraïbes, Guadeloupe

13:13 AST le 27 juillet 2016 (GMT -0400)
Aéroport Raizet | | Change Station

Alt. 16 ft 16.27 °N, 61.52 °W | Updated 45 seconds ago

Partly Cloudy
Partiellement nuageux
91.6 ° F
Paraît 100 ° F
N
7.4
Vent Variable Vent de Est
Gusts 8.9 mph

Aujourd'hui
Haut(e) -- | Bas -- ° F
--% Risque de précip.
Hier
Haut(e) -- | Bas -- ° F
Precip. -- pouce
Pression 29.98 pouce
Visibilité 6.2 Miles terrestres
Nuages Peu 4000 ft
indice de chaleur 100 ° F
Point de rosée 73 ° F
Humidité 54%
Précipitations 0.00 pouce
Profondeur de la couche neigeuse Non disponible.
5:45 AM 6:39 PM
Dernier quartier, 41% visible
METAR TFFR 271700Z AUTO 13013KT 100V160 9999 FEW040 32/23 Q1015
Pression 29.98 pouce
Visibilité 6.2 Miles terrestres
Nuages Peu 4000 ft
indice de chaleur 100 ° F
Point de rosée 73 ° F
Humidité 54%
Précipitations 0.00 pouce
Profondeur de la couche neigeuse Non disponible.
5:45 AM 6:39 PM
Dernier quartier, 41% visible
METAR TFFR 271700Z AUTO 13013KT 100V160 9999 FEW040 32/23 Q1015

10-Day Weather Forecast

No radar image for this location.
×

Almanac

Astronomie

Jul. 27, 2016 Lever Coucher
Temps réel
Crépuscule civil
Crépuscule nautique
Crépuscule astronomique
Lune
Durée de lumière visible
Longueur du jour
Tomorrow will be .
, % of the Moon is Illuminated

Extrêmes aujourd'hui

Country Highs Country Lows

Community

WunderPhotos

Upload Photos

1,927,884 Photos téléchargées !

WunderBlog® & News

Nearby

Qualité de l'air

  Qualité de l'air Indice de la qualité de l'air Polluant
Not available.

Épaisseur de neige

Station Depth Altitude

Activité sismique

Ville Distance Mag. Time & Date
Minimum magnitude displayed is 2.5.

Températures des eaux côtières

Lieu Température

Stations

Stations météo à proximité

Emplacement de la station Température Refroidissement éolien Point de rosée Humidité Vent Precip. Alt. Mise à jour Type